createdAt,value
2019-04-10T00:01:45.157Z,68.72
2019-04-10T00:04:15.142Z,69.35
2019-04-10T00:06:45.863Z,69.04
2019-04-10T00:09:16.917Z,69.18
2019-04-10T00:11:47.551Z,69.61
2019-04-10T00:14:18.295Z,69.46
2019-04-10T00:16:48.903Z,69.90
2019-04-10T00:19:18.855Z,70.08
2019-04-10T00:21:49.439Z,70.92
2019-04-10T00:24:19.871Z,70.47
2019-04-10T00:26:50.141Z,70.95
2019-04-10T00:29:20.360Z,70.54
2019-04-10T00:31:50.797Z,69.73
2019-04-10T00:34:21.209Z,70.13
2019-04-10T00:36:51.456Z,70.89
2019-04-10T00:39:22.301Z,70.80
2019-04-10T00:41:52.615Z,70.66
2019-04-10T00:44:23.662Z,70.67
2019-04-10T00:46:54.745Z,70.46
2019-04-10T00:49:25.918Z,71.24
2019-04-10T00:51:56.074Z,71.12
2019-04-10T00:54:26.053Z,71.03
2019-04-10T00:56:56.968Z,70.91
2019-04-10T00:59:26.921Z,71.20
2019-04-10T01:01:56.952Z,71.09
2019-04-10T01:04:27.017Z,72.23
2019-04-10T01:06:57.031Z,71.30
2019-04-10T01:09:27.044Z,72.00
2019-04-10T01:11:57.274Z,71.44
2019-04-10T01:14:27.233Z,71.83
2019-04-10T01:16:57.856Z,71.29
2019-04-10T01:19:28.156Z,72.77
2019-04-10T01:21:58.909Z,72.14
2019-04-10T01:24:29.929Z,73.07
2019-04-10T01:27:00.000Z,73.65
2019-04-10T01:29:30.051Z,73.71
2019-04-10T01:32:00.048Z,73.76
2019-04-10T01:34:30.094Z,73.53
2019-04-10T01:37:00.611Z,74.70
2019-04-10T01:39:32.570Z,74.13
2019-04-10T01:42:02.663Z,74.55
2019-04-10T01:44:32.981Z,76.01
2019-04-10T01:47:03.030Z,75.29
2019-04-10T01:49:33.630Z,74.97
2019-04-10T01:52:04.711Z,75.68
2019-04-10T01:54:35.372Z,75.17
2019-04-10T01:57:06.184Z,75.68
2019-04-10T01:59:38.217Z,76.86
2019-04-10T02:02:37.047Z,76.36
2019-04-10T02:05:08.152Z,75.68
2019-04-10T02:07:38.319Z,75.49
2019-04-10T02:10:08.490Z,75.91
2019-04-10T02:12:38.899Z,75.01
2019-04-10T02:15:11.857Z,75.92
2019-04-10T02:17:41.137Z,75.32
2019-04-10T02:20:11.304Z,76.25
2019-04-10T02:22:41.313Z,76.38
2019-04-10T02:25:11.792Z,77.35
2019-04-10T02:27:42.635Z,77.24
2019-04-10T02:30:16.378Z,77.82
2019-04-10T02:32:47.704Z,77.27
2019-04-10T02:35:18.922Z,77.98
2019-04-10T02:37:52.436Z,79.02
2019-04-10T02:40:21.118Z,78.76
2019-04-10T02:42:51.465Z,78.14
2019-04-10T02:45:22.015Z,77.80
2019-04-10T02:47:52.842Z,77.61
2019-04-10T02:50:22.996Z,77.47
2019-04-10T02:52:52.982Z,77.22
2019-04-10T02:55:23.200Z,77.06
2019-04-10T02:57:54.222Z,77.59
2019-04-10T03:00:26.441Z,77.08
2019-04-10T03:02:57.584Z,77.71
2019-04-10T03:05:28.184Z,77.53
2019-04-10T03:07:58.455Z,77.99
2019-04-10T03:10:38.947Z,77.60
2019-04-10T03:13:02.659Z,77.27
2019-04-10T03:15:33.794Z,77.27
2019-04-10T03:18:04.319Z,76.79
2019-04-10T03:20:34.408Z,78.00
2019-04-10T03:23:05.237Z,77.95
2019-04-10T03:25:35.270Z,78.50
2019-04-10T03:28:07.116Z,77.69
2019-04-10T03:30:39.489Z,77.81
2019-04-10T03:33:39.977Z,78.65
2019-04-10T03:36:09.506Z,79.27
2019-04-10T03:38:53.936Z,78.26
2019-04-10T03:41:12.263Z,78.44
2019-04-10T03:43:42.476Z,78.41
2019-04-10T03:46:12.988Z,78.18
2019-04-10T03:48:43.110Z,77.87
2019-04-10T03:51:13.155Z,77.67
2019-04-10T03:53:44.553Z,77.58
2019-04-10T03:56:15.748Z,78.12
2019-04-10T03:58:45.726Z,80.01
2019-04-10T04:01:16.525Z,79.15
2019-04-10T04:03:46.575Z,79.67
2019-04-10T04:06:17.555Z,80.25
2019-04-10T04:08:47.960Z,79.77
2019-04-10T04:11:19.710Z,79.72
2019-04-10T04:13:50.064Z,79.78
2019-04-10T04:16:20.139Z,80.38
2019-04-10T04:18:51.062Z,79.16
2019-04-10T04:21:21.240Z,78.81
2019-04-10T04:23:51.230Z,79.78
2019-04-10T04:26:21.302Z,78.82
2019-04-10T04:28:51.596Z,78.33
2019-04-10T04:31:22.810Z,79.23
2019-04-10T04:33:53.319Z,78.69
2019-04-10T04:36:24.534Z,78.90
2019-04-10T04:38:54.591Z,79.64
2019-04-10T04:41:25.329Z,78.38
2019-04-10T04:43:55.387Z,78.63
2019-04-10T04:46:26.054Z,78.12
2019-04-10T04:48:56.168Z,78.41
2019-04-10T04:51:27.277Z,78.48
2019-04-10T04:53:57.252Z,78.73
2019-04-10T04:56:28.205Z,78.15
2019-04-10T04:58:59.351Z,78.14
2019-04-10T05:01:29.717Z,78.06
2019-04-10T05:04:00.373Z,78.51
2019-04-10T05:06:30.849Z,79.93
2019-04-10T05:09:00.955Z,79.24
2019-04-10T05:11:30.969Z,80.01
2019-04-10T05:14:02.761Z,80.81
2019-04-10T05:16:33.037Z,81.53
2019-04-10T05:19:03.789Z,81.81
2019-04-10T05:21:35.021Z,81.61
2019-04-10T05:24:05.333Z,80.98
2019-04-10T05:26:36.273Z,80.64
2019-04-10T05:29:06.525Z,80.69
2019-04-10T05:31:36.547Z,81.55
2019-04-10T05:34:06.567Z,81.16
2019-04-10T05:36:37.698Z,82.48
2019-04-10T05:39:08.588Z,81.94
2019-04-10T05:41:38.535Z,81.39
2019-04-10T05:44:09.513Z,81.16
2019-04-10T05:46:39.530Z,80.68
2019-04-10T05:49:10.745Z,82.07
2019-04-10T05:51:41.596Z,82.37
2019-04-10T05:54:12.775Z,82.77
2019-04-10T05:56:42.854Z,81.84
2019-04-10T05:59:13.601Z,81.79
2019-04-10T06:01:45.599Z,82.15
2019-04-10T06:04:16.833Z,82.90
2019-04-10T06:06:46.893Z,84.10
2019-04-10T06:09:16.925Z,84.38
2019-04-10T06:11:47.387Z,83.21
2019-04-10T06:14:17.836Z,83.15
2019-04-10T06:16:48.937Z,83.25
2019-04-10T06:19:19.954Z,83.36
2019-04-10T06:21:50.405Z,83.70
2019-04-10T06:24:20.526Z,82.92
2019-04-10T06:26:50.561Z,83.94
2019-04-10T06:29:21.135Z,83.39
2019-04-10T06:31:51.175Z,84.05
2019-04-10T06:34:21.188Z,83.57
2019-04-10T06:36:51.569Z,83.40
2019-04-10T06:39:21.605Z,84.03
2019-04-10T06:41:51.790Z,84.43
2019-04-10T06:44:21.910Z,84.50
2019-04-10T06:46:52.927Z,85.01
2019-04-10T06:49:23.011Z,84.63
2019-04-10T06:51:53.536Z,84.32
2019-04-10T06:54:24.512Z,84.50
2019-04-10T06:56:54.753Z,84.63
2019-04-10T06:59:24.859Z,85.35
2019-04-10T07:01:58.442Z,85.92
2019-04-10T07:04:28.407Z,85.40
2019-04-10T07:07:04.809Z,85.18
2019-04-10T07:09:30.355Z,85.18
2019-04-10T07:12:01.767Z,84.67
2019-04-10T07:14:35.152Z,84.64
2019-04-10T07:17:06.737Z,84.98
2019-04-10T07:19:36.465Z,84.37
2019-04-10T07:22:11.997Z,84.53
2019-04-10T07:24:41.380Z,84.22
2019-04-10T07:27:10.355Z,83.85
2019-04-10T07:29:40.483Z,84.10
2019-04-10T07:32:11.913Z,83.99
2019-04-10T07:34:42.527Z,83.98
2019-04-10T07:37:17.556Z,84.02
2019-04-10T07:39:45.056Z,82.95
2019-04-10T07:42:25.985Z,82.60
2019-04-10T07:44:47.105Z,83.02
2019-04-10T07:47:17.476Z,82.73
2019-04-10T07:49:48.303Z,82.90
2019-04-10T07:52:20.074Z,82.54
2019-04-10T07:54:50.420Z,81.85
2019-04-10T07:57:20.490Z,81.63
2019-04-10T07:59:50.564Z,79.49
2019-04-10T08:02:21.172Z,79.91
2019-04-10T08:04:51.653Z,79.94
2019-04-10T08:07:29.849Z,79.29
2019-04-10T08:09:54.094Z,77.99
2019-04-10T08:12:25.496Z,76.22
2019-04-10T08:14:56.215Z,74.99
2019-04-10T08:17:26.358Z,73.29
2019-04-10T08:19:57.319Z,70.49
2019-04-10T08:22:28.599Z,70.30
2019-04-10T08:24:58.717Z,69.06
2019-04-10T08:27:29.816Z,70.77
2019-04-10T08:30:01.113Z,71.84
2019-04-10T08:32:32.256Z,70.82
2019-04-10T08:35:03.177Z,72.00
2019-04-10T08:37:33.276Z,70.55
2019-04-10T08:40:03.353Z,68.81
2019-04-10T08:42:33.475Z,68.92
2019-04-10T08:45:03.515Z,68.00
2019-04-10T08:47:33.575Z,67.65
2019-04-10T08:50:04.026Z,65.10
2019-04-10T08:52:34.719Z,65.56
2019-04-10T08:55:05.966Z,65.40
2019-04-10T08:57:36.248Z,64.65
2019-04-10T09:00:08.001Z,63.48
2019-04-10T09:02:38.278Z,63.92
2019-04-10T09:05:09.329Z,63.96
2019-04-10T09:07:40.072Z,63.47
2019-04-10T09:10:12.309Z,64.58
2019-04-10T09:12:43.020Z,64.14
2019-04-10T09:15:13.978Z,63.95
2019-04-10T09:17:44.149Z,61.32
2019-04-10T09:20:14.369Z,61.17
2019-04-10T09:23:07.507Z,59.51
2019-04-10T09:25:17.797Z,59.03
2019-04-10T09:27:48.102Z,60.13
2019-04-10T09:30:18.453Z,60.63
2019-04-10T09:32:48.645Z,60.64
2019-04-10T09:35:18.704Z,59.74
2019-04-10T09:37:48.781Z,58.85
2019-04-10T09:40:18.874Z,57.89
2019-04-10T09:42:49.945Z,57.59
2019-04-10T09:45:20.156Z,57.07
2019-04-10T09:47:50.292Z,56.31
2019-04-10T09:50:21.339Z,56.06
2019-04-10T09:52:52.360Z,55.13
2019-04-10T09:55:22.497Z,55.63
2019-04-10T09:57:52.540Z,55.69
2019-04-10T10:00:23.443Z,54.71
2019-04-10T10:02:53.563Z,55.23
2019-04-10T10:05:23.694Z,54.68
2019-04-10T10:07:56.069Z,54.50
2019-04-10T10:10:25.499Z,53.48
2019-04-10T10:12:55.554Z,54.92
2019-04-10T10:15:25.631Z,53.92
2019-04-10T10:17:55.731Z,53.76
2019-04-10T10:20:25.986Z,53.51
2019-04-10T10:22:56.052Z,54.40
2019-04-10T10:25:26.973Z,55.03
2019-04-10T10:27:58.501Z,54.02
2019-04-10T10:30:28.793Z,53.54
2019-04-10T10:32:59.396Z,53.39
2019-04-10T10:35:29.511Z,54.73
2019-04-10T10:38:00.982Z,54.19
2019-04-10T10:40:31.849Z,53.31
2019-04-10T10:43:02.450Z,53.46
2019-04-10T10:45:32.576Z,53.52
2019-04-10T10:48:03.346Z,53.63
2019-04-10T10:50:33.598Z,53.67
2019-04-10T10:53:04.012Z,54.01
2019-04-10T10:55:34.169Z,53.04
2019-04-10T10:58:04.219Z,50.52
2019-04-10T11:00:35.494Z,51.16
2019-04-10T11:03:05.758Z,50.88
2019-04-10T11:05:37.178Z,49.63
2019-04-10T11:08:07.339Z,49.85
2019-04-10T11:10:37.513Z,49.00
2019-04-10T11:13:08.834Z,49.12
2019-04-10T11:15:42.417Z,49.74
2019-04-10T11:18:10.915Z,50.14
2019-04-10T11:20:41.798Z,49.91
2019-04-10T11:23:12.101Z,49.02
2019-04-10T11:25:42.148Z,49.50
2019-04-10T11:28:12.578Z,49.90
2019-04-10T11:30:44.961Z,49.88
2019-04-10T11:33:15.082Z,48.41
2019-04-10T11:35:45.886Z,49.29
2019-04-10T11:38:17.489Z,48.39
2019-04-10T11:40:47.657Z,47.16
2019-04-10T11:43:18.784Z,48.20
2019-04-10T11:45:52.843Z,49.04
2019-04-10T11:48:20.906Z,49.48
2019-04-10T11:50:53.426Z,48.73
2019-04-10T11:53:23.979Z,48.48
2019-04-10T11:55:56.980Z,49.82
2019-04-10T11:58:28.926Z,49.38
2019-04-10T12:01:00.149Z,48.93
2019-04-10T12:03:31.364Z,49.05
2019-04-10T12:06:04.261Z,49.50
2019-04-10T12:08:55.067Z,50.17
2019-04-10T12:11:06.050Z,51.14
2019-04-10T12:13:37.209Z,51.93
2019-04-10T12:16:07.255Z,51.74
2019-04-10T12:18:38.362Z,51.77
2019-04-10T12:21:09.386Z,52.53
2019-04-10T12:23:39.474Z,52.05
2019-04-10T12:26:09.692Z,51.49
2019-04-10T12:28:40.276Z,51.71
2019-04-10T12:31:10.507Z,51.53
2019-04-10T12:33:40.574Z,50.49
2019-04-10T12:36:12.150Z,50.50
2019-04-10T12:38:42.228Z,49.89
2019-04-10T12:41:12.260Z,49.59
2019-04-10T12:43:43.160Z,50.10
2019-04-10T12:46:13.346Z,48.61
2019-04-10T12:48:43.844Z,48.58
2019-04-10T12:51:14.023Z,48.96
2019-04-10T12:53:44.058Z,49.81
2019-04-10T12:56:14.086Z,49.19
2019-04-10T12:58:44.696Z,50.77
2019-04-10T13:01:16.327Z,50.04
2019-04-10T13:03:47.356Z,50.05
2019-04-10T13:06:17.977Z,50.14
2019-04-10T13:08:57.910Z,50.27
2019-04-10T13:11:20.521Z,50.31
2019-04-10T13:13:51.318Z,50.58
2019-04-10T13:16:21.814Z,50.19
2019-04-10T13:18:52.332Z,50.16
2019-04-10T13:21:22.431Z,49.62
2019-04-10T13:23:53.042Z,50.53
2019-04-10T13:26:23.939Z,49.37
2019-04-10T13:28:54.070Z,48.60
2019-04-10T13:31:24.202Z,48.99
2019-04-10T13:33:55.114Z,48.94
2019-04-10T13:36:25.148Z,48.76
2019-04-10T13:38:55.281Z,49.96
2019-04-10T13:41:26.134Z,49.36
2019-04-10T13:43:56.117Z,50.34
2019-04-10T13:46:26.822Z,50.64
2019-04-10T13:48:57.645Z,50.20
2019-04-10T13:51:27.881Z,50.05
2019-04-10T13:53:58.528Z,50.00
2019-04-10T13:56:28.860Z,49.83
2019-04-10T13:58:58.910Z,48.92
2019-04-10T14:01:31.603Z,49.01
2019-04-10T14:04:02.880Z,48.22
2019-04-10T14:06:33.927Z,48.30
2019-04-10T14:09:22.622Z,48.81
2019-04-10T14:11:37.468Z,48.32
2019-04-10T14:14:08.531Z,47.26
2019-04-10T14:16:39.079Z,47.39
2019-04-10T14:19:09.806Z,46.35
2019-04-10T14:21:40.820Z,46.50
2019-04-10T14:24:12.074Z,48.00
2019-04-10T14:26:54.921Z,47.31
2019-04-10T14:29:24.770Z,47.93
2019-04-10T14:32:04.915Z,49.26
2019-04-10T14:34:35.136Z,49.44
2019-04-10T14:37:07.790Z,49.32
2019-04-10T14:39:37.982Z,49.23
2019-04-10T14:42:08.673Z,49.04
2019-04-10T14:44:38.936Z,49.50
2019-04-10T14:47:09.064Z,48.90
2019-04-10T14:49:39.113Z,48.89
2019-04-10T14:52:09.138Z,49.07
2019-04-10T14:54:39.761Z,49.30
2019-04-10T14:57:10.604Z,48.30
2019-04-10T14:59:40.794Z,48.31
2019-04-10T15:02:11.123Z,49.26
2019-04-10T15:04:41.551Z,48.46
2019-04-10T15:07:12.273Z,48.64
2019-04-10T15:09:42.538Z,48.48
2019-04-10T15:12:12.582Z,48.54
2019-04-10T15:14:43.663Z,47.98
2019-04-10T15:17:14.749Z,48.87
2019-04-10T15:19:44.878Z,49.18
2019-04-10T15:22:15.656Z,49.16
2019-04-10T15:24:46.855Z,49.56
2019-04-10T15:27:17.348Z,49.00
2019-04-10T15:29:47.508Z,50.32
2019-04-10T15:32:17.652Z,50.67
2019-04-10T15:34:48.364Z,51.07
2019-04-10T15:37:18.581Z,51.38
2019-04-10T15:39:49.638Z,51.65
2019-04-10T15:42:19.818Z,51.56
2019-04-10T15:44:50.328Z,51.64
2019-04-10T15:47:22.997Z,51.58
2019-04-10T15:49:52.189Z,51.64
2019-04-10T15:52:22.917Z,51.90
2019-04-10T15:54:53.888Z,51.23
2019-04-10T15:57:24.917Z,51.58
2019-04-10T15:59:55.047Z,51.29
2019-04-10T16:02:25.867Z,50.26
2019-04-10T16:04:57.184Z,50.83
2019-04-10T16:07:28.767Z,50.68
2019-04-10T16:10:08.524Z,49.53
2019-04-10T16:12:39.976Z,49.82
2019-04-10T16:15:11.182Z,48.99
2019-04-10T16:17:52.213Z,48.98
2019-04-10T16:20:25.819Z,48.31
2019-04-10T16:23:14.283Z,47.89
2019-04-10T16:25:47.904Z,48.24
2019-04-10T16:28:18.094Z,47.62
2019-04-10T16:30:48.635Z,48.29
2019-04-10T16:33:18.902Z,47.41
2019-04-10T16:35:49.569Z,46.92
2019-04-10T16:38:20.548Z,46.99
2019-04-10T16:40:50.790Z,46.60
2019-04-10T16:43:20.845Z,46.94
2019-04-10T16:45:51.033Z,47.28
2019-04-10T16:48:21.080Z,47.07
2019-04-10T16:50:51.935Z,47.19
2019-04-10T16:53:22.254Z,47.98
2019-04-10T16:55:53.359Z,48.26
2019-04-10T16:58:23.565Z,48.64
2019-04-10T17:00:53.909Z,49.75
2019-04-10T17:03:23.962Z,50.44
2019-04-10T17:05:54.000Z,50.84
2019-04-10T17:08:24.036Z,51.40
2019-04-10T17:10:54.140Z,50.79
2019-04-10T17:13:24.608Z,50.99
2019-04-10T17:15:55.621Z,50.58
2019-04-10T17:18:26.102Z,51.19
2019-04-10T17:20:57.212Z,50.69
2019-04-10T17:23:28.895Z,50.75
2019-04-10T17:26:00.655Z,50.89
2019-04-10T17:28:30.720Z,51.19
2019-04-10T17:31:00.779Z,51.37
2019-04-10T17:33:32.149Z,51.36
2019-04-10T17:36:02.380Z,51.10
2019-04-10T17:38:32.462Z,51.62
2019-04-10T17:41:04.395Z,52.12
2019-04-10T17:43:35.057Z,51.96
2019-04-10T17:46:05.247Z,51.88
2019-04-10T17:48:37.216Z,52.95
2019-04-10T17:51:07.953Z,52.28
2019-04-10T17:53:38.026Z,52.24
2019-04-10T17:56:08.408Z,52.93
2019-04-10T17:58:39.189Z,52.88
2019-04-10T18:01:12.883Z,52.98
2019-04-10T18:03:51.687Z,53.09
2019-04-10T18:06:17.294Z,53.08
2019-04-10T18:08:54.285Z,53.45
2019-04-10T18:11:27.946Z,53.50
2019-04-10T18:14:00.829Z,53.99
2019-04-10T18:16:31.057Z,54.61
2019-04-10T18:19:08.476Z,54.51
2019-04-10T18:21:39.193Z,55.04
2019-04-10T18:24:13.699Z,55.15
2019-04-10T18:26:43.773Z,56.50
2019-04-10T18:29:19.065Z,56.72
2019-04-10T18:31:49.361Z,56.74
2019-04-10T18:34:24.928Z,57.62
2019-04-10T18:36:54.970Z,56.96
2019-04-10T18:39:26.951Z,56.57
2019-04-10T18:41:59.334Z,56.67
2019-04-10T18:44:31.145Z,57.04
2019-04-10T18:47:02.829Z,57.90
2019-04-10T18:49:35.745Z,57.90
2019-04-10T18:52:05.826Z,57.70
2019-04-10T18:54:41.507Z,58.53
2019-04-10T18:57:11.591Z,58.02
2019-04-10T19:00:00.911Z,57.84
2019-04-10T19:02:45.836Z,57.80
2019-04-10T19:05:19.612Z,58.96
2019-04-10T19:07:54.627Z,59.04
2019-04-10T19:10:24.631Z,58.88
2019-04-10T19:15:33.231Z,58.39
2019-04-10T19:18:07.684Z,59.01
2019-04-10T19:20:38.948Z,59.66
2019-04-10T19:23:10.749Z,59.55
2019-04-10T19:25:40.937Z,59.64
2019-04-10T19:28:27.676Z,60.02
2019-04-10T19:30:53.317Z,59.72
2019-04-10T19:33:25.870Z,60.13
2019-04-10T19:35:55.890Z,59.78
2019-04-10T19:41:02.623Z,59.21
2019-04-10T19:43:40.074Z,60.08
2019-04-10T19:46:10.795Z,60.55
2019-04-10T19:48:48.345Z,60.27
2019-04-10T19:51:16.945Z,60.25
2019-04-10T19:56:22.963Z,60.93
2019-04-10T20:01:31.221Z,60.35
2019-04-10T20:04:04.026Z,61.83
2019-04-10T20:06:34.205Z,61.23
2019-04-10T20:09:10.581Z,61.12
2019-04-10T20:11:45.297Z,61.22
2019-04-10T20:14:16.867Z,61.77
2019-04-10T20:16:47.797Z,62.04
2019-04-10T20:19:24.592Z,61.90
2019-04-10T20:21:54.720Z,61.84
2019-04-10T20:24:25.060Z,61.78
2019-04-10T20:26:55.912Z,62.15
2019-04-10T20:29:30.859Z,61.98
2019-04-10T20:32:01.731Z,61.83
2019-04-10T20:34:35.706Z,62.46
2019-04-10T20:37:09.251Z,62.69
2019-04-10T20:39:43.476Z,63.33
2019-04-10T20:42:14.003Z,62.97
2019-04-10T20:44:47.158Z,63.12
2019-04-10T20:47:17.281Z,64.38
2019-04-10T20:49:51.170Z,64.07
2019-04-10T20:52:22.075Z,64.05
2019-04-10T20:54:53.849Z,63.85
2019-04-10T20:57:23.883Z,64.23
2019-04-10T20:59:57.369Z,64.78
2019-04-10T21:02:28.517Z,65.01
2019-04-10T21:05:05.790Z,64.83
2019-04-10T21:07:31.871Z,65.47
2019-04-10T21:10:06.367Z,65.23
2019-04-10T21:12:36.481Z,66.22
2019-04-10T21:15:09.084Z,65.95
2019-04-10T21:17:39.693Z,65.78
2019-04-10T21:20:16.733Z,65.01
2019-04-10T21:22:47.273Z,66.42
2019-04-10T21:25:19.424Z,65.26
2019-04-10T21:27:56.325Z,65.45
2019-04-10T21:31:07.619Z,65.11
2019-04-10T21:34:01.195Z,65.65
2019-04-10T21:36:37.045Z,67.46
2019-04-10T21:39:09.437Z,66.79
2019-04-10T21:41:41.149Z,66.41
2019-04-10T21:44:11.799Z,66.76
2019-04-10T21:46:44.868Z,67.90
2019-04-10T21:49:15.609Z,67.08
2019-04-10T21:51:46.087Z,67.31
2019-04-10T21:54:16.432Z,67.53
2019-04-10T21:56:49.453Z,67.93
2019-04-10T21:59:20.506Z,68.77
2019-04-10T22:01:51.452Z,68.64
2019-04-10T22:04:21.650Z,68.78
2019-04-10T22:07:20.337Z,67.98
2019-04-10T22:10:08.434Z,68.50
2019-04-10T22:12:43.784Z,69.11
2019-04-10T22:15:28.957Z,68.40
2019-04-10T22:18:00.769Z,68.73
2019-04-10T22:20:33.858Z,69.14
2019-04-10T22:23:09.840Z,67.93
2019-04-10T22:25:39.881Z,67.39
2019-04-10T22:28:14.921Z,67.90
2019-04-10T22:30:45.705Z,68.03
2019-04-10T22:33:18.281Z,68.14
2019-04-10T22:35:48.435Z,67.25
2019-04-10T22:38:25.020Z,66.69
2019-04-10T22:40:56.031Z,66.71
2019-04-10T22:43:30.859Z,67.02
2019-04-10T22:46:00.881Z,66.95
2019-04-10T22:48:33.963Z,66.93
2019-04-10T22:51:04.012Z,67.04
2019-04-10T22:53:34.805Z,67.26
2019-04-10T22:56:04.868Z,67.71
2019-04-10T22:58:41.493Z,67.16
2019-04-10T23:01:13.335Z,67.64
2019-04-10T23:03:47.695Z,67.30
2019-04-10T23:06:17.695Z,67.01
2019-04-10T23:11:31.690Z,66.66
2019-04-10T23:13:58.460Z,67.76
2019-04-10T23:16:28.640Z,67.24
2019-04-10T23:19:03.682Z,66.73
2019-04-10T23:21:41.039Z,66.07
2019-04-10T23:24:12.246Z,66.30
2019-04-10T23:26:42.291Z,66.45
2019-04-10T23:29:14.290Z,66.76
2019-04-10T23:31:44.285Z,67.19
2019-04-10T23:34:18.761Z,66.62
2019-04-10T23:36:48.922Z,66.90
2019-04-10T23:39:24.019Z,68.07
2019-04-10T23:41:54.822Z,68.46
2019-04-10T23:44:31.163Z,68.18
2019-04-10T23:47:02.061Z,67.93
2019-04-10T23:49:35.954Z,68.39
2019-04-10T23:52:05.966Z,68.57
2019-04-10T23:54:39.773Z,68.94
2019-04-10T23:57:10.119Z,68.37
2019-04-10T23:59:46.797Z,68.60
